MET'MAP v2.0
soon released !

Expected late october,
this new version will be
more efficient, smarter,
and hosted on a brand new
server x3 powerfull...
...and still free !


Not compatible ?
Try the mobile version !

LOG IN : | Subscribe | Disclaimer | Who is Orbifly ? |
ICAO code :

TAF - ETEB Ansbach Army Heliport - 14 Dec 2019 14:31 UTC
Data Sources :     NOAA   


- Airport Elevation : 0 ft
- No reported NOTAMs.


ETEB - Ansbach Army Heliport

Latest METAR recorded : 2015/08/11 08:16 ETEB 110816Z AUTO 25006KT 9999 SCT009 21/19 A3005 RMK AO2
TAF AMD TAF ETEB
Valid from the 13 at 18:00 until the 14 at 20:00 UTC


132001Z 1318/1420 21012KT 8000 -SHRA BKN010 620303 QNH2890INS
BECMG 1322/1323 25012KT 9999 NSW BKN020 620302 QNH2915INS
BECMG 1404/1405 20012G18KT 8000 -RASN BKN010 620208 QNH2913INS
BECMG 1408/1409 27010G15KT 9999 NSW BKN010 620402 QNH2918INS
BECMG 1417/1418 23012G18KT 8000 -SHRA BKN030 QNH2950INS TX06/1414Z TN01/1404Z LAST NO AMDS AFT 1318 NEXT 1521

Source NOAA


MET'MAP, your aeronautical weather chart ! - Copyright ORBIFLY December 2007

Programming & Development : Alexandra Zaïnal
Co-Developer : Marc-Olivier Méhu
Technical & hardware support : Manuel Goepfert
Concept & Financing : Baudouin d'Aumeries